Time;durP1;ratioP1;P1;durP2;ratioP2;P2;SDS_P1;SDS_P2;PMS_P1;PMS_P2;Temp;Humidity;BMP_temperature;BMP_pressure;BME280_temperature;BME280_humidity;BME280_pressure;Samples;Min_cycle;Max_cycle;Signal;HPM_P1;HPM_P2
2021/11/19 00:01:07;;;;;;;14.95;10.52;;;12.00;96.70;;;;;;4859735;29;20036;-75
2021/11/19 00:03:38;;;;;;;13.18;9.63;;;12.00;96.70;;;;;;4873277;29;20604;-75
2021/11/19 00:06:07;;;;;;;14.38;11.43;;;12.00;96.70;;;;;;4875419;29;20056;-75
2021/11/19 00:08:36;;;;;;;14.27;10.18;;;12.00;96.70;;;;;;4878264;29;20112;-75
2021/11/19 00:11:06;;;;;;;16.20;11.40;;;12.00;96.70;;;;;;4873622;29;20568;-75
2021/11/19 00:13:35;;;;;;;15.30;10.45;;;12.00;96.70;;;;;;4873063;29;20049;-75
2021/11/19 00:16:05;;;;;;;13.18;9.52;;;12.00;96.70;;;;;;4878648;29;20048;-75
2021/11/19 00:18:33;;;;;;;13.73;9.85;;;12.00;96.70;;;;;;4873358;29;20534;-75
2021/11/19 00:21:02;;;;;;;13.20;9.35;;;11.80;96.70;;;;;;4890401;29;20063;-75
2021/11/19 00:23:30;;;;;;;12.77;8.77;;;11.80;96.70;;;;;;4892043;29;20468;-75
2021/11/19 00:25:58;;;;;;;10.85;8.63;;;11.70;96.70;;;;;;4872278;29;20045;-75
2021/11/19 00:28:27;;;;;;;13.30;9.70;;;11.70;96.70;;;;;;4873735;29;20056;-76
2021/11/19 00:30:55;;;;;;;12.75;8.98;;;11.80;96.70;;;;;;4886482;29;20052;-75
2021/11/19 00:33:24;;;;;;;10.63;8.23;;;11.80;96.70;;;;;;4872522;29;20464;-75
2021/11/19 00:35:52;;;;;;;12.75;10.05;;;11.80;96.70;;;;;;4864142;29;20044;-75
2021/11/19 00:38:22;;;;;;;13.00;8.90;;;11.70;96.70;;;;;;4892494;29;20056;-75
2021/11/19 00:40:55;;;;;;;11.45;8.65;;;11.60;96.70;;;;;;4884117;29;20075;-75
2021/11/19 00:43:23;;;;;;;12.98;8.27;;;11.60;96.70;;;;;;4873148;29;20856;-75
2021/11/19 00:45:52;;;;;;;11.13;8.52;;;11.60;96.70;;;;;;4887516;29;20147;-75
2021/11/19 00:48:23;;;;;;;11.38;7.85;;;11.40;96.70;;;;;;4890082;29;20052;-75
2021/11/19 00:50:59;;;;;;;9.98;7.70;;;11.40;96.70;;;;;;4890772;29;20666;-75
2021/11/19 00:53:27;;;;;;;11.40;9.23;;;11.40;96.70;;;;;;4870250;29;20052;-75
2021/11/19 00:55:55;;;;;;;9.63;8.27;;;11.40;96.70;;;;;;4870714;29;20041;-75
2021/11/19 00:58:24;;;;;;;8.57;7.18;;;11.40;96.70;;;;;;4857191;29;20519;-75
2021/11/19 01:00:55;;;;;;;8.90;7.15;;;11.40;96.70;;;;;;4891560;29;20050;-75
2021/11/19 01:03:26;;;;;;;9.43;7.03;;;11.40;96.70;;;;;;4885107;29;20047;-75
2021/11/19 01:05:55;;;;;;;8.60;7.18;;;11.50;96.70;;;;;;4871831;29;20478;-75
2021/11/19 01:08:25;;;;;;;8.20;6.95;;;11.50;96.70;;;;;;4892602;29;20068;-74
2021/11/19 01:10:57;;;;;;;9.48;7.18;;;11.40;96.70;;;;;;4885668;29;20139;-75
2021/11/19 01:13:26;;;;;;;8.02;6.72;;;11.50;96.70;;;;;;4871524;29;20426;-75
2021/11/19 01:15:58;;;;;;;8.93;7.10;;;11.60;96.70;;;;;;4888722;29;20051;-74
2021/11/19 01:18:34;;;;;;;9.57;6.95;;;11.60;96.70;;;;;;4875626;29;20565;-75
2021/11/19 01:21:06;;;;;;;8.95;7.13;;;11.50;96.70;;;;;;4887597;29;20555;-75
2021/11/19 01:23:35;;;;;;;8.30;6.35;;;11.50;96.70;;;;;;4856082;29;20053;-75
2021/11/19 01:26:06;;;;;;;8.20;6.70;;;11.40;96.70;;;;;;4872464;29;20448;-74
2021/11/19 01:28:34;;;;;;;9.45;6.25;;;11.40;96.70;;;;;;4872008;29;20048;-75
2021/11/19 01:31:06;;;;;;;7.57;6.53;;;11.30;96.70;;;;;;4870438;29;20040;-74
2021/11/19 01:33:34;;;;;;;8.57;6.53;;;11.40;96.70;;;;;;4865969;29;20516;-74
2021/11/19 01:36:30;;;;;;;8.65;6.80;;;11.40;96.70;;;;;;4872049;29;20040;-75
2021/11/19 01:39:08;;;;;;;8.88;7.38;;;11.50;96.70;;;;;;4872118;29;20557;-75
2021/11/19 01:42:01;;;;;;;14.40;10.13;;;11.40;96.70;;;;;;4883899;29;20421;-75
2021/11/19 01:44:31;;;;;;;16.38;10.00;;;11.30;96.70;;;;;;4870998;29;20445;-75
2021/11/19 01:47:02;;;;;;;14.80;9.95;;;11.20;96.70;;;;;;4871346;29;20044;-75
2021/11/19 01:49:33;;;;;;;12.38;8.50;;;11.10;96.70;;;;;;4870572;29;20055;-75
2021/11/19 01:52:12;;;;;;;9.98;7.45;;;11.10;96.70;;;;;;4876475;29;20321;-75
2021/11/19 01:54:45;;;;;;;14.82;10.30;;;11.00;96.70;;;;;;4868797;29;20147;-75
2021/11/19 01:57:20;;;;;;;13.07;9.25;;;11.00;96.70;;;;;;4871151;29;20063;-75
2021/11/19 01:59:56;;;;;;;11.75;8.63;;;11.00;96.70;;;;;;4863118;29;20076;-74
2021/11/19 02:02:30;;;;;;;12.63;7.70;;;10.90;96.70;;;;;;4883253;29;20152;-74
2021/11/19 02:05:04;;;;;;;8.55;7.38;;;10.90;96.70;;;;;;4871694;29;20052;-75
2021/11/19 02:07:37;;;;;;;8.10;6.88;;;10.90;96.70;;;;;;4870579;29;20041;-75
2021/11/19 02:10:37;;;;;;;10.45;7.55;;;10.90;96.70;;;;;;4848764;29;20057;-75
2021/11/19 02:13:11;;;;;;;9.30;7.07;;;11.00;96.70;;;;;;4830500;29;20049;-75
2021/11/19 02:15:43;;;;;;;10.52;7.03;;;11.00;96.70;;;;;;4844065;29;20144;-74
2021/11/19 02:18:15;;;;;;;10.27;6.85;;;11.00;96.70;;;;;;4841968;29;20576;-75
2021/11/19 02:20:46;;;;;;;9.77;7.00;;;11.00;96.70;;;;;;4848211;29;20056;-75
2021/11/19 02:23:20;;;;;;;11.02;7.03;;;10.90;96.70;;;;;;4847707;29;20090;-75
2021/11/19 02:25:57;;;;;;;9.73;7.40;;;11.00;96.70;;;;;;4845821;29;20049;-75
2021/11/19 02:28:30;;;;;;;8.60;7.28;;;10.90;96.70;;;;;;4844083;29;20575;-75
2021/11/19 02:31:05;;;;;;;8.25;7.00;;;10.90;96.70;;;;;;4851548;29;20056;-75
2021/11/19 02:33:34;;;;;;;8.80;7.75;;;10.80;96.70;;;;;;4847091;29;20053;-75
2021/11/19 02:36:05;;;;;;;9.15;7.15;;;11.00;96.70;;;;;;4845473;29;20048;-74
2021/11/19 02:38:41;;;;;;;13.73;7.20;;;11.00;96.70;;;;;;4849410;29;20081;-74
2021/11/19 02:41:11;;;;;;;11.18;7.63;;;11.00;96.70;;;;;;4847409;29;20056;-75
2021/11/19 02:43:42;;;;;;;9.75;7.25;;;11.00;96.70;;;;;;4847801;29;20192;-75
2021/11/19 02:46:17;;;;;;;8.70;6.95;;;10.90;96.70;;;;;;4846603;29;20124;-75
2021/11/19 02:48:45;;;;;;;11.75;7.65;;;10.90;96.70;;;;;;4882210;29;20505;-75
2021/11/19 02:51:15;;;;;;;8.43;6.90;;;10.70;96.70;;;;;;4866126;29;20184;-75
2021/11/19 02:53:47;;;;;;;10.25;7.32;;;10.70;96.70;;;;;;4886329;29;23543;-74
2021/11/19 02:56:17;;;;;;;9.23;7.78;;;10.70;96.70;;;;;;4885240;29;20527;-74
2021/11/19 02:58:57;;;;;;;10.27;7.63;;;10.80;96.70;;;;;;4887201;29;20048;-75
2021/11/19 03:01:29;;;;;;;11.50;7.15;;;10.80;96.70;;;;;;4867904;29;20051;-75
2021/11/19 03:04:06;;;;;;;10.18;7.40;;;10.80;96.70;;;;;;4874086;29;20043;-75
2021/11/19 03:06:37;;;;;;;10.13;7.70;;;10.80;96.70;;;;;;4868715;29;20511;-74
2021/11/19 03:09:07;;;;;;;11.18;7.63;;;10.80;96.70;;;;;;4869544;29;20054;-75
2021/11/19 03:11:36;;;;;;;10.65;7.60;;;10.80;96.70;;;;;;4883212;29;20574;-75
2021/11/19 03:14:06;;;;;;;12.80;7.40;;;10.70;96.70;;;;;;4885486;29;20047;-75
2021/11/19 03:16:36;;;;;;;9.05;6.70;;;10.70;96.70;;;;;;4884542;29;20067;-75
2021/11/19 03:19:04;;;;;;;10.50;7.95;;;10.70;96.70;;;;;;4871929;29;20127;-75
2021/11/19 03:21:34;;;;;;;9.02;7.35;;;10.80;96.70;;;;;;4883536;29;20444;-74
2021/11/19 03:24:07;;;;;;;8.68;7.03;;;10.80;96.70;;;;;;4882839;29;20053;-74
2021/11/19 03:26:36;;;;;;;10.15;7.40;;;10.80;96.70;;;;;;4866963;29;20135;-74
2021/11/19 03:29:07;;;;;;;11.52;7.22;;;10.70;96.70;;;;;;4871144;29;20559;-75
2021/11/19 03:31:36;;;;;;;9.65;7.35;;;10.70;96.70;;;;;;4867043;29;20044;-75
2021/11/19 03:34:09;;;;;;;9.10;7.05;;;10.70;96.70;;;;;;4854933;29;20158;-75
2021/11/19 03:36:38;;;;;;;9.93;7.35;;;10.60;96.70;;;;;;4871387;29;20055;-74
2021/11/19 03:39:08;;;;;;;9.63;6.57;;;10.60;96.70;;;;;;4868706;29;20053;-75
2021/11/19 03:41:40;;;;;;;9.85;6.90;;;10.60;96.70;;;;;;4853786;29;20049;-75
2021/11/19 03:44:12;;;;;;;9.35;7.10;;;10.60;96.70;;;;;;4869735;29;20132;-74
2021/11/19 03:46:45;;;;;;;10.23;7.20;;;10.50;96.70;;;;;;4887244;29;20536;-75
2021/11/19 03:49:15;;;;;;;9.18;6.80;;;10.50;96.70;;;;;;4875532;29;20594;-75
2021/11/19 03:51:46;;;;;;;10.25;6.50;;;10.50;96.70;;;;;;4869346;29;20057;-74
2021/11/19 03:54:17;;;;;;;16.95;7.97;;;10.50;96.70;;;;;;4885422;29;20053;-74
2021/11/19 03:56:46;;;;;;;8.82;6.93;;;10.50;96.70;;;;;;4884824;29;20053;-74
2021/11/19 03:59:15;;;;;;;9.65;6.80;;;10.60;96.70;;;;;;4870484;29;20055;-75
2021/11/19 04:01:46;;;;;;;8.57;6.20;;;10.60;96.70;;;;;;4887970;29;20352;-75
2021/11/19 04:04:18;;;;;;;8.25;6.85;;;10.50;96.70;;;;;;4872330;29;20048;-74
2021/11/19 04:06:48;;;;;;;8.73;6.60;;;10.40;96.70;;;;;;4890151;29;20072;-75
2021/11/19 04:09:20;;;;;;;10.07;7.03;;;10.30;96.70;;;;;;4873187;29;20529;-75
2021/11/19 04:11:48;;;;;;;9.88;6.53;;;10.20;96.70;;;;;;4876877;29;20044;-74
2021/11/19 04:14:17;;;;;;;7.38;6.28;;;10.20;96.70;;;;;;4876256;29;20065;-75
2021/11/19 04:16:48;;;;;;;8.90;6.55;;;10.10;96.70;;;;;;4887395;29;20056;-74
2021/11/19 04:19:18;;;;;;;10.75;6.68;;;10.10;96.70;;;;;;4886302;29;20477;-75
2021/11/19 04:21:49;;;;;;;8.57;6.32;;;10.20;96.70;;;;;;4887244;29;20216;-75
2021/11/19 04:24:25;;;;;;;9.38;6.90;;;10.20;96.70;;;;;;4875193;29;20045;-75
2021/11/19 04:26:53;;;;;;;10.00;6.88;;;10.20;96.70;;;;;;4871951;29;20048;-75
2021/11/19 04:29:38;;;;;;;8.23;6.93;;;10.20;96.70;;;;;;4882842;29;20052;-75
2021/11/19 04:32:21;;;;;;;8.45;6.50;;;10.10;96.70;;;;;;4871239;29;20154;-74
2021/11/19 04:34:52;;;;;;;9.45;6.43;;;10.00;96.70;;;;;;4883443;29;20516;-75
2021/11/19 04:37:21;;;;;;;9.20;6.55;;;10.00;96.70;;;;;;4856732;29;20119;-75
2021/11/19 04:39:51;;;;;;;8.20;6.03;;;10.10;96.70;;;;;;4889569;29;20148;-75
2021/11/19 04:42:20;;;;;;;7.55;6.40;;;10.20;96.70;;;;;;4870794;29;20060;-74
2021/11/19 04:44:53;;;;;;;8.70;6.10;;;10.10;96.70;;;;;;4885878;29;20049;-74
2021/11/19 04:47:32;;;;;;;8.05;6.32;;;10.10;96.70;;;;;;4859773;29;20147;-74
2021/11/19 04:50:00;;;;;;;8.10;6.47;;;10.10;96.70;;;;;;4888546;29;20061;-74
2021/11/19 04:52:29;;;;;;;7.65;6.03;;;10.10;96.70;;;;;;4872047;29;20040;-74
2021/11/19 04:54:59;;;;;;;7.85;5.85;;;10.10;96.70;;;;;;4872421;29;20144;-74
2021/11/19 04:57:27;;;;;;;7.32;5.78;;;10.10;96.70;;;;;;4872194;29;20049;-74
2021/11/19 04:59:55;;;;;;;6.95;5.57;;;10.20;96.70;;;;;;4874097;29;20611;-74
2021/11/19 05:02:23;;;;;;;7.13;6.15;;;10.20;96.70;;;;;;4872565;29;20053;-74
2021/11/19 05:05:02;;;;;;;7.97;6.03;;;10.30;96.70;;;;;;4872367;29;20056;-74
2021/11/19 05:07:35;;;;;;;7.43;5.47;;;10.40;96.70;;;;;;4886496;29;20049;-74
2021/11/19 05:10:06;;;;;;;8.23;6.10;;;10.40;96.70;;;;;;4873100;29;20142;-74
2021/11/19 05:12:50;;;;;;;8.10;6.05;;;10.40;96.70;;;;;;4886989;29;20419;-74
2021/11/19 05:15:19;;;;;;;7.90;6.15;;;10.30;96.70;;;;;;4867986;29;20044;-73
2021/11/19 05:17:47;;;;;;;9.38;6.22;;;10.20;96.70;;;;;;4873555;29;20057;-73
2021/11/19 05:20:19;;;;;;;8.32;6.43;;;10.20;96.70;;;;;;4871663;29;20147;-74
2021/11/19 05:22:49;;;;;;;9.43;5.50;;;10.20;96.70;;;;;;4888670;29;20525;-74
2021/11/19 05:25:24;;;;;;;7.97;5.82;;;10.10;96.70;;;;;;4876156;29;20503;-74
2021/11/19 05:27:53;;;;;;;7.75;6.38;;;9.90;96.70;;;;;;4884484;29;20052;-74
2021/11/19 05:30:21;;;;;;;10.75;5.85;;;9.80;96.70;;;;;;4869808;29;20265;-74
2021/11/19 05:32:59;;;;;;;8.93;6.20;;;9.70;96.70;;;;;;4874416;29;20519;-74
2021/11/19 05:35:28;;;;;;;7.85;6.43;;;9.70;96.70;;;;;;4875535;29;20053;-73
2021/11/19 05:37:56;;;;;;;8.48;6.00;;;9.70;96.70;;;;;;4870775;29;20068;-74
2021/11/19 05:40:25;;;;;;;7.57;5.85;;;9.70;96.70;;;;;;4870516;29;20849;-74
2021/11/19 05:42:54;;;;;;;8.57;5.80;;;9.70;96.70;;;;;;4882913;29;20424;-74
2021/11/19 05:45:26;;;;;;;10.88;6.30;;;9.80;96.70;;;;;;4871303;29;20052;-74
2021/11/19 05:47:58;;;;;;;14.38;6.57;;;9.80;96.70;;;;;;4871575;29;20051;-74
2021/11/19 05:50:29;;;;;;;10.93;6.25;;;9.80;96.70;;;;;;4895706;29;20040;-74
2021/11/19 05:52:59;;;;;;;10.10;6.43;;;9.80;96.70;;;;;;4871639;29;20096;-73
2021/11/19 05:55:33;;;;;;;10.05;6.50;;;9.70;96.70;;;;;;4875629;29;20056;-74
2021/11/19 05:58:02;;;;;;;7.40;5.95;;;9.70;96.70;;;;;;4855067;29;20055;-74
2021/11/19 06:00:41;;;;;;;8.30;5.47;;;9.70;96.70;;;;;;4862022;29;20242;-73
2021/11/19 06:03:29;;;;;;;10.75;6.45;;;9.70;96.70;;;;;;4882916;29;20041;-74
2021/11/19 06:06:18;;;;;;;10.35;6.85;;;9.70;96.70;;;;;;4874919;29;20049;-73
2021/11/19 06:09:16;;;;;;;8.57;6.53;;;9.70;96.70;;;;;;4871315;29;20124;-74
2021/11/19 06:11:50;;;;;;;11.55;7.50;;;9.70;96.70;;;;;;4874880;29;20056;-74
2021/11/19 06:14:22;;;;;;;7.90;6.40;;;9.80;96.70;;;;;;4871309;29;20515;-74
2021/11/19 06:16:53;;;;;;;8.60;6.65;;;9.70;96.70;;;;;;4868808;29;20196;-74
2021/11/19 06:19:25;;;;;;;12.15;6.63;;;9.70;96.70;;;;;;4888592;29;20552;-74
2021/11/19 06:21:55;;;;;;;7.22;5.65;;;9.60;96.70;;;;;;4883976;29;20135;-75
2021/11/19 06:24:28;;;;;;;8.30;6.22;;;9.50;96.70;;;;;;4868708;29;20148;-75
2021/11/19 06:26:58;;;;;;;9.75;6.80;;;9.50;96.70;;;;;;4888085;29;20039;-74
2021/11/19 06:29:26;;;;;;;10.80;6.85;;;9.40;96.70;;;;;;4870648;29;20048;-75
2021/11/19 06:31:57;;;;;;;8.85;6.65;;;9.50;96.70;;;;;;4882810;29;20135;-74
2021/11/19 06:34:27;;;;;;;9.18;6.13;;;9.60;96.70;;;;;;4882238;29;20096;-74
2021/11/19 06:36:55;;;;;;;12.25;6.78;;;9.60;96.70;;;;;;4882556;29;20048;-74
2021/11/19 06:39:44;;;;;;;11.30;6.47;;;9.60;96.70;;;;;;4869258;29;20075;-75
2021/11/19 06:42:25;;;;;;;10.90;6.60;;;9.70;96.70;;;;;;4859790;29;20132;-75
2021/11/19 06:45:16;;;;;;;12.27;7.10;;;9.70;96.70;;;;;;4886948;29;20067;-74
2021/11/19 06:48:03;;;;;;;9.05;6.78;;;9.80;96.70;;;;;;4886413;29;20048;-74
2021/11/19 06:51:03;;;;;;;9.65;6.90;;;9.80;96.70;;;;;;4854384;29;20049;-75
2021/11/19 06:53:49;;;;;;;10.90;6.85;;;9.80;96.70;;;;;;4874214;29;20136;-74
2021/11/19 06:56:53;;;;;;;13.43;6.75;;;9.80;96.70;;;;;;4878899;29;20056;-74
2021/11/19 06:59:31;;;;;;;10.35;7.35;;;9.90;96.70;;;;;;4871427;29;20192;-74
2021/11/19 07:01:59;;;;;;;10.30;6.15;;;9.80;96.70;;;;;;4884433;29;20060;-75
2021/11/19 07:04:29;;;;;;;10.70;7.18;;;9.80;96.70;;;;;;4890742;29;20055;-74
2021/11/19 07:06:59;;;;;;;13.27;6.35;;;9.80;96.70;;;;;;4869880;29;20063;-75
2021/11/19 07:09:28;;;;;;;8.93;6.47;;;9.80;96.70;;;;;;4868269;29;20073;-74
2021/11/19 07:12:00;;;;;;;10.73;7.40;;;9.90;96.70;;;;;;4868114;29;20044;-73
2021/11/19 07:14:39;;;;;;;10.82;7.70;;;9.90;96.70;;;;;;4872463;29;20048;-74
2021/11/19 07:17:08;;;;;;;11.50;7.70;;;9.90;96.70;;;;;;4871720;29;20053;-74
2021/11/19 07:19:41;;;;;;;15.23;7.78;;;10.00;96.70;;;;;;4876123;29;20052;-74
2021/11/19 07:22:11;;;;;;;11.68;7.85;;;10.10;96.70;;;;;;4892974;29;20044;-74
2021/11/19 07:24:43;;;;;;;12.70;7.65;;;10.10;96.70;;;;;;4875190;29;20045;-74
2021/11/19 07:27:15;;;;;;;10.15;7.13;;;10.10;96.70;;;;;;4888133;29;20579;-74
2021/11/19 07:29:45;;;;;;;9.57;6.93;;;10.10;96.70;;;;;;4874529;29;20456;-74
2021/11/19 07:32:42;;;;;;;11.02;6.60;;;10.20;96.70;;;;;;4844140;29;20390;-74
2021/11/19 07:35:30;;;;;;;12.23;7.43;;;10.30;96.70;;;;;;4888643;29;20661;-74
2021/11/19 07:38:19;;;;;;;9.50;7.10;;;10.30;96.70;;;;;;4887394;29;20059;-75
2021/11/19 07:41:07;;;;;;;9.85;7.90;;;10.30;96.70;;;;;;4860018;29;20511;-74
2021/11/19 07:44:14;;;;;;;8.27;7.20;;;10.30;96.70;;;;;;4799727;29;20493;-74
2021/11/19 07:46:51;;;;;;;11.63;7.13;;;10.40;96.70;;;;;;4795808;29;20061;-74
2021/11/19 07:49:21;;;;;;;14.00;7.45;;;10.50;96.70;;;;;;4831259;29;20139;-74
2021/11/19 07:51:51;;;;;;;11.65;8.93;;;10.60;96.70;;;;;;4873806;29;20070;-74
2021/11/19 07:54:21;;;;;;;14.00;9.18;;;10.50;96.70;;;;;;4872177;29;20048;-75
2021/11/19 07:56:50;;;;;;;11.93;8.98;;;10.50;96.70;;;;;;4867444;29;20087;-73
2021/11/19 07:59:21;;;;;;;12.90;8.35;;;10.60;96.70;;;;;;4889667;29;20092;-74
2021/11/19 08:01:53;;;;;;;11.32;8.65;;;10.60;96.70;;;;;;4889421;29;20402;-74
2021/11/19 08:04:21;;;;;;;11.65;8.80;;;10.60;96.70;;;;;;4896324;29;20067;-76
2021/11/19 08:06:55;;;;;;;11.35;7.93;;;10.70;96.70;;;;;;4885018;29;20048;-74
2021/11/19 08:09:44;;;;;;;10.30;8.00;;;10.70;96.70;;;;;;4888437;29;20056;-74
2021/11/19 08:12:20;;;;;;;10.80;7.90;;;10.80;96.70;;;;;;4890211;29;20131;-74
2021/11/19 08:15:04;;;;;;;9.35;7.13;;;10.90;96.70;;;;;;4856176;29;21047;-73
2021/11/19 08:17:37;;;;;;;10.80;7.80;;;11.00;96.70;;;;;;4864101;29;20052;-74
2021/11/19 08:20:21;;;;;;;9.27;7.40;;;11.10;96.70;;;;;;4872189;29;20052;-74
2021/11/19 08:22:50;;;;;;;9.38;7.35;;;11.10;96.70;;;;;;4872809;29;20076;-74
2021/11/19 08:25:19;;;;;;;10.85;7.60;;;11.20;96.70;;;;;;4858018;29;20048;-74
2021/11/19 08:27:50;;;;;;;8.30;7.00;;;11.30;96.70;;;;;;4872634;29;20079;-74
2021/11/19 08:30:21;;;;;;;9.50;7.28;;;11.30;96.70;;;;;;4876113;29;20426;-74
2021/11/19 08:32:51;;;;;;;8.93;7.38;;;11.30;96.70;;;;;;4890132;29;20096;-74
2021/11/19 08:35:19;;;;;;;10.65;8.27;;;11.40;96.70;;;;;;4888801;29;20055;-74
2021/11/19 08:37:49;;;;;;;8.20;6.88;;;11.50;96.70;;;;;;4871554;29;20056;-74
2021/11/19 08:40:18;;;;;;;12.07;7.82;;;11.60;96.70;;;;;;4854799;29;20068;-74
2021/11/19 08:42:46;;;;;;;9.68;7.70;;;11.60;96.70;;;;;;4870027;29;20041;-74
2021/11/19 08:45:18;;;;;;;11.80;8.02;;;11.70;96.70;;;;;;4870734;29;20499;-74
2021/11/19 08:47:54;;;;;;;13.75;7.75;;;11.70;96.70;;;;;;4841309;29;20119;-74
2021/11/19 08:50:25;;;;;;;9.68;7.90;;;11.80;96.70;;;;;;4868950;29;20078;-74
2021/11/19 08:52:54;;;;;;;9.35;7.30;;;11.90;96.70;;;;;;4855283;29;20614;-74
2021/11/19 08:55:23;;;;;;;12.40;8.13;;;12.00;96.70;;;;;;4855222;29;20524;-75
2021/11/19 08:57:53;;;;;;;9.85;8.07;;;12.00;96.70;;;;;;4847597;29;20420;-74
2021/11/19 09:00:26;;;;;;;10.07;7.88;;;12.10;96.70;;;;;;4868612;29;20158;-74
2021/11/19 09:02:58;;;;;;;12.38;8.77;;;12.20;96.70;;;;;;4868653;29;20079;-73
2021/11/19 09:05:28;;;;;;;11.27;8.38;;;12.30;96.70;;;;;;4851375;29;20412;-74
2021/11/19 09:07:57;;;;;;;11.80;8.60;;;12.30;96.70;;;;;;4855629;29;20048;-74
2021/11/19 09:10:26;;;;;;;10.93;9.07;;;12.30;96.70;;;;;;4869690;29;20511;-73
2021/11/19 09:12:54;;;;;;;11.10;8.73;;;12.40;96.70;;;;;;4870695;29;20575;-74
2021/11/19 09:15:24;;;;;;;13.98;9.73;;;12.40;96.70;;;;;;4868647;29;20037;-74
2021/11/19 09:18:08;;;;;;;11.60;8.70;;;12.50;96.70;;;;;;4870218;29;20156;-74
2021/11/19 09:20:53;;;;;;;12.98;8.90;;;12.70;96.70;;;;;;4868977;29;20124;-74
2021/11/19 09:23:25;;;;;;;14.05;9.77;;;12.80;96.70;;;;;;4869821;29;20041;-74
2021/11/19 09:25:56;;;;;;;10.35;8.75;;;12.80;96.70;;;;;;4851273;29;20087;-74
2021/11/19 09:28:30;;;;;;;9.85;8.43;;;12.90;96.70;;;;;;4871000;29;20041;-74
2021/11/19 09:31:01;;;;;;;12.07;8.82;;;13.00;96.70;;;;;;4868728;29;20113;-74
2021/11/19 09:33:31;;;;;;;12.27;8.65;;;13.00;96.70;;;;;;4868537;29;20508;-74
2021/11/19 09:36:00;;;;;;;10.80;8.70;;;13.10;96.70;;;;;;4870964;29;20534;-73
2021/11/19 09:38:28;;;;;;;11.68;8.25;;;13.20;96.70;;;;;;4855156;29;20056;-73
2021/11/19 09:41:05;;;;;;;10.45;8.70;;;13.20;96.70;;;;;;4882577;29;20507;-72
2021/11/19 09:43:43;;;;;;;11.02;8.77;;;13.20;96.70;;;;;;4890194;29;20051;-73
2021/11/19 09:46:41;;;;;;;12.15;8.40;;;13.30;96.70;;;;;;4887680;29;20044;-73
2021/11/19 09:49:43;;;;;;;10.75;8.70;;;13.40;96.70;;;;;;4862931;29;20206;-73
2021/11/19 09:52:56;;;;;;;10.68;7.90;;;13.50;96.70;;;;;;4888483;29;20041;-73
2021/11/19 09:55:41;;;;;;;10.50;8.82;;;13.60;96.70;;;;;;4886866;29;20415;-73
2021/11/19 09:58:35;;;;;;;9.27;7.63;;;13.60;96.70;;;;;;4874480;29;20064;-73
2021/11/19 10:01:51;;;;;;;9.32;7.68;;;13.80;96.70;;;;;;4887065;29;20064;-72
2021/11/19 10:04:55;;;;;;;10.65;7.85;;;13.90;96.70;;;;;;4846087;29;20068;-73
2021/11/19 10:07:32;;;;;;;9.25;7.60;;;14.00;96.70;;;;;;4880641;29;20577;-73
2021/11/19 10:10:18;;;;;;;9.85;7.88;;;14.20;96.70;;;;;;4875164;29;20526;-73
2021/11/19 10:12:51;;;;;;;12.98;8.25;;;14.20;96.70;;;;;;4884961;29;20052;-73
2021/11/19 10:15:23;;;;;;;10.10;7.75;;;14.30;96.70;;;;;;4891475;29;20052;-72
2021/11/19 10:17:58;;;;;;;10.73;7.78;;;14.30;96.70;;;;;;4887828;29;20042;-72
2021/11/19 10:20:30;;;;;;;10.85;8.18;;;14.50;96.70;;;;;;4888909;29;20885;-73
2021/11/19 10:23:05;;;;;;;10.05;7.10;;;14.60;96.70;;;;;;4869835;29;20105;-73
2021/11/19 10:25:38;;;;;;;10.07;7.65;;;14.70;96.70;;;;;;4885553;29;20727;-72
2021/11/19 10:28:10;;;;;;;9.25;8.13;;;14.80;96.70;;;;;;4869556;29;20760;-74
2021/11/19 10:30:42;;;;;;;14.93;9.73;;;14.80;96.70;;;;;;4869700;29;20503;-74
2021/11/19 10:33:20;;;;;;;14.63;9.77;;;14.80;96.70;;;;;;4871402;29;20043;-74
2021/11/19 10:36:04;;;;;;;14.38;9.23;;;14.80;96.70;;;;;;4885632;29;20041;-74
2021/11/19 10:39:08;;;;;;;12.90;9.95;;;14.90;96.70;;;;;;4884036;29;20049;-74
2021/11/19 10:42:04;;;;;;;13.57;10.10;;;15.00;96.70;;;;;;4882635;29;20145;-74
2021/11/19 10:44:52;;;;;;;12.27;9.93;;;15.10;96.70;;;;;;4887659;29;20587;-73
2021/11/19 10:47:58;;;;;;;12.98;9.38;;;15.30;96.70;;;;;;4885861;29;20080;-74
2021/11/19 10:51:02;;;;;;;12.55;9.38;;;15.30;96.70;;;;;;4844116;29;20579;-74
2021/11/19 10:54:19;;;;;;;11.60;8.93;;;15.40;96.70;;;;;;4872230;29;20044;-74
2021/11/19 10:56:55;;;;;;;12.05;8.77;;;15.50;96.70;;;;;;4874590;29;20568;-74
2021/11/19 10:59:38;;;;;;;10.68;8.45;;;15.60;96.70;;;;;;4891075;29;20109;-74
2021/11/19 11:02:36;;;;;;;10.02;8.10;;;15.70;96.70;;;;;;4891238;29;20063;-74
2021/11/19 11:05:29;;;;;;;10.07;7.95;;;15.80;96.70;;;;;;4850374;29;20076;-74
2021/11/19 11:08:20;;;;;;;10.73;7.80;;;15.80;96.70;;;;;;4869165;29;20450;-74
2021/11/19 11:10:54;;;;;;;7.57;6.53;;;15.90;96.70;;;;;;4870278;29;20048;-74
2021/11/19 11:13:26;;;;;;;7.50;6.18;;;16.00;96.70;;;;;;4895261;29;20345;-75
2021/11/19 11:15:58;;;;;;;7.15;6.10;;;16.10;96.70;;;;;;4873513;29;20048;-74
2021/11/19 11:18:30;;;;;;;6.70;5.95;;;16.20;96.70;;;;;;4889887;29;20052;-74
2021/11/19 11:21:16;;;;;;;7.53;6.65;;;16.30;96.70;;;;;;4887629;29;20052;-73
2021/11/19 11:24:06;;;;;;;7.88;5.90;;;16.30;96.70;;;;;;4896555;29;20080;-74
2021/11/19 11:26:44;;;;;;;8.73;6.03;;;16.40;96.70;;;;;;4888629;29;20521;-73
2021/11/19 11:29:51;;;;;;;7.03;5.90;;;16.50;96.70;;;;;;4892489;29;20052;-74
2021/11/19 11:32:51;;;;;;;7.13;5.60;;;16.70;96.70;;;;;;4891461;29;20080;-74
2021/11/19 11:35:38;;;;;;;7.20;5.90;;;16.90;96.70;;;;;;4849057;29;20146;-74
2021/11/19 11:38:30;;;;;;;;;;;17.00;96.70;;;;;;4879544;29;20052;-74
2021/11/19 11:41:15;;;;;;;10.75;5.75;;;17.10;96.70;;;;;;4890163;29;19934;-75
2021/11/19 11:43:57;;;;;;;5.25;4.68;;;17.20;96.70;;;;;;4872472;29;20066;-74
2021/11/19 11:46:29;;;;;;;5.80;5.15;;;17.20;96.70;;;;;;4872090;29;20289;-75
2021/11/19 11:49:08;;;;;;;6.40;5.55;;;17.20;96.70;;;;;;4888597;29;20044;-74
2021/11/19 11:52:02;;;;;;;6.30;5.00;;;17.40;96.70;;;;;;4875084;29;20048;-74
2021/11/19 11:54:37;;;;;;;8.43;5.82;;;17.40;96.70;;;;;;4889401;29;20115;-74
2021/11/19 11:57:28;;;;;;;6.10;5.10;;;17.40;96.70;;;;;;4888823;29;20048;-75
2021/11/19 12:00:01;;;;;;;7.68;5.40;;;17.50;96.70;;;;;;4885841;29;20057;-75
2021/11/19 12:02:42;;;;;;;6.13;4.75;;;17.60;96.70;;;;;;4870787;29;20056;-74
2021/11/19 12:05:34;;;;;;;6.22;4.97;;;17.80;96.70;;;;;;4871591;29;20052;-75
2021/11/19 12:08:37;;;;;;;5.22;4.57;;;17.90;96.70;;;;;;4888343;29;20459;-74
2021/11/19 12:11:54;;;;;;;5.85;4.40;;;18.10;96.70;;;;;;4888461;29;20091;-74
2021/11/19 12:14:37;;;;;;;6.60;4.55;;;18.10;96.70;;;;;;4888610;29;20037;-74
2021/11/19 12:17:14;;;;;;;6.65;4.78;;;18.10;96.70;;;;;;4874921;29;20567;-74
2021/11/19 12:19:47;;;;;;;4.72;4.28;;;18.10;96.70;;;;;;4870978;29;20040;-75
2021/11/19 12:22:19;;;;;;;6.53;4.38;;;18.20;96.70;;;;;;4874246;29;20132;-75
2021/11/19 12:24:55;;;;;;;6.15;4.50;;;18.40;96.70;;;;;;4868876;29;20605;-75
2021/11/19 12:27:34;;;;;;;6.07;4.77;;;18.40;96.70;;;;;;4869982;29;20044;-75
2021/11/19 12:30:17;;;;;;;4.93;4.43;;;18.30;96.70;;;;;;4874842;29;20574;-75
2021/11/19 12:32:52;;;;;;;4.30;3.88;;;18.40;96.70;;;;;;4888263;29;20465;-75
2021/11/19 12:35:24;;;;;;;5.38;4.35;;;18.50;96.70;;;;;;4874638;29;20056;-75
2021/11/19 12:38:02;;;;;;;4.68;4.03;;;18.50;96.70;;;;;;4872793;29;20048;-75
2021/11/19 12:40:39;;;;;;;5.32;4.45;;;18.50;96.70;;;;;;4873978;29;20528;-75
2021/11/19 12:43:25;;;;;;;4.88;4.38;;;18.60;96.70;;;;;;4858281;29;20060;-75
2021/11/19 12:45:58;;;;;;;4.57;4.07;;;18.80;96.70;;;;;;4872614;29;20048;-75
2021/11/19 12:49:19;;;;;;;5.15;4.00;;;18.90;96.70;;;;;;4874307;29;20059;-75
2021/11/19 12:51:54;;;;;;;5.97;4.60;;;18.90;96.70;;;;;;4858957;29;20056;-75
2021/11/19 12:54:48;;;;;;;4.68;4.18;;;18.90;96.70;;;;;;4885183;29;20048;-74
2021/11/19 12:57:41;;;;;;;4.68;4.03;;;18.90;96.70;;;;;;4873849;29;20063;-75
2021/11/19 13:00:23;;;;;;;4.95;4.45;;;18.80;96.70;;;;;;4887030;29;20048;-75
2021/11/19 13:03:17;;;;;;;5.55;4.13;;;18.80;96.70;;;;;;4882895;29;20052;-75
2021/11/19 13:06:07;;;;;;;5.38;4.00;;;18.90;96.70;;;;;;4885783;29;20155;-74
2021/11/19 13:08:39;;;;;;;5.53;4.50;;;18.90;96.70;;;;;;4875370;29;20138;-74
2021/11/19 13:11:38;;;;;;;4.25;3.80;;;18.80;96.70;;;;;;4872830;29;20158;-74
2021/11/19 13:14:43;;;;;;;4.60;4.07;;;18.70;96.70;;;;;;4886905;29;20045;-74
2021/11/19 13:17:41;;;;;;;4.40;3.92;;;18.70;96.70;;;;;;4878363;29;20117;-74
2021/11/19 13:20:34;;;;;;;5.68;4.07;;;18.60;96.70;;;;;;4819418;29;20136;-74
2021/11/19 13:23:36;;;;;;;4.60;4.00;;;18.70;96.70;;;;;;4883868;29;20079;-74
2021/11/19 13:26:38;;;;;;;4.55;3.67;;;18.70;96.70;;;;;;4872651;29;20049;-74
2021/11/19 13:29:29;;;;;;;4.30;3.63;;;18.90;96.70;;;;;;4886300;29;20048;-74
2021/11/19 13:32:35;;;;;;;4.57;3.63;;;18.90;96.70;;;;;;4867403;29;20056;-74